sensor_id;sensor_type;location;lat;lon;timestamp;P1;durP1;ratioP1;P2;durP2;ratioP2
67737;SDS011;54534;43.612;1.572;2023-06-14T00:00:30;3.23;;;1.00;;
67737;SDS011;54534;43.612;1.572;2023-06-14T00:02:56;1.73;;;0.90;;
67737;SDS011;54534;43.612;1.572;2023-06-14T00:05:22;1.30;;;0.93;;
67737;SDS011;54534;43.612;1.572;2023-06-14T00:07:48;1.30;;;0.93;;
67737;SDS011;54534;43.612;1.572;2023-06-14T00:10:14;1.07;;;0.80;;
67737;SDS011;54534;43.612;1.572;2023-06-14T00:12:40;0.90;;;0.90;;
67737;SDS011;54534;43.612;1.572;2023-06-14T00:15:06;4.63;;;1.13;;
67737;SDS011;54534;43.612;1.572;2023-06-14T00:17:34;1.60;;;0.80;;
67737;SDS011;54534;43.612;1.572;2023-06-14T00:20:02;0.80;;;0.80;;
67737;SDS011;54534;43.612;1.572;2023-06-14T00:22:30;1.85;;;1.05;;
67737;SDS011;54534;43.612;1.572;2023-06-14T00:24:56;2.93;;;1.37;;
67737;SDS011;54534;43.612;1.572;2023-06-14T00:27:22;4.23;;;1.33;;
67737;SDS011;54534;43.612;1.572;2023-06-14T00:29:47;1.83;;;1.00;;
67737;SDS011;54534;43.612;1.572;2023-06-14T00:32:13;2.40;;;0.80;;
67737;SDS011;54534;43.612;1.572;2023-06-14T00:34:38;1.27;;;1.00;;
67737;SDS011;54534;43.612;1.572;2023-06-14T00:37:03;3.77;;;0.80;;
67737;SDS011;54534;43.612;1.572;2023-06-14T00:39:29;0.90;;;0.80;;
67737;SDS011;54534;43.612;1.572;2023-06-14T00:41:54;3.43;;;1.43;;
67737;SDS011;54534;43.612;1.572;2023-06-14T00:44:20;2.00;;;1.10;;
67737;SDS011;54534;43.612;1.572;2023-06-14T00:46:46;2.83;;;1.03;;
67737;SDS011;54534;43.612;1.572;2023-06-14T00:49:13;0.70;;;0.70;;
67737;SDS011;54534;43.612;1.572;2023-06-14T00:51:40;3.13;;;0.80;;
67737;SDS011;54534;43.612;1.572;2023-06-14T00:54:06;1.13;;;1.03;;
67737;SDS011;54534;43.612;1.572;2023-06-14T00:56:32;2.23;;;1.10;;
67737;SDS011;54534;43.612;1.572;2023-06-14T00:58:57;2.77;;;1.20;;
67737;SDS011;54534;43.612;1.572;2023-06-14T01:01:23;2.43;;;1.00;;
67737;SDS011;54534;43.612;1.572;2023-06-14T01:03:49;1.10;;;1.00;;
67737;SDS011;54534;43.612;1.572;2023-06-14T01:08:53;1.27;;;0.90;;
67737;SDS011;54534;43.612;1.572;2023-06-14T01:11:31;1.13;;;1.07;;
67737;SDS011;54534;43.612;1.572;2023-06-14T01:14:00;1.13;;;0.93;;
67737;SDS011;54534;43.612;1.572;2023-06-14T01:16:28;1.10;;;1.00;;
67737;SDS011;54534;43.612;1.572;2023-06-14T01:18:54;0.90;;;0.90;;
67737;SDS011;54534;43.612;1.572;2023-06-14T01:21:24;0.60;;;0.60;;
67737;SDS011;54534;43.612;1.572;2023-06-14T01:23:51;1.83;;;0.98;;
67737;SDS011;54534;43.612;1.572;2023-06-14T01:28:46;0.63;;;0.63;;
67737;SDS011;54534;43.612;1.572;2023-06-14T01:31:16;1.87;;;0.90;;
67737;SDS011;54534;43.612;1.572;2023-06-14T01:33:44;1.00;;;0.90;;
67737;SDS011;54534;43.612;1.572;2023-06-14T01:36:11;1.13;;;0.70;;
67737;SDS011;54534;43.612;1.572;2023-06-14T01:38:37;0.93;;;0.93;;
67737;SDS011;54534;43.612;1.572;2023-06-14T01:41:04;1.63;;;1.00;;
67737;SDS011;54534;43.612;1.572;2023-06-14T01:43:30;1.03;;;1.00;;
67737;SDS011;54534;43.612;1.572;2023-06-14T01:45:56;1.60;;;1.00;;
67737;SDS011;54534;43.612;1.572;2023-06-14T01:48:23;1.20;;;1.10;;
67737;SDS011;54534;43.612;1.572;2023-06-14T01:50:49;1.30;;;1.10;;
67737;SDS011;54534;43.612;1.572;2023-06-14T01:53:15;1.07;;;1.00;;
67737;SDS011;54534;43.612;1.572;2023-06-14T01:55:40;0.80;;;0.80;;
67737;SDS011;54534;43.612;1.572;2023-06-14T01:58:09;1.20;;;1.10;;
67737;SDS011;54534;43.612;1.572;2023-06-14T02:00:35;1.23;;;1.03;;
67737;SDS011;54534;43.612;1.572;2023-06-14T02:03:01;0.97;;;0.97;;
67737;SDS011;54534;43.612;1.572;2023-06-14T02:05:29;0.90;;;0.90;;
67737;SDS011;54534;43.612;1.572;2023-06-14T02:07:55;1.57;;;1.10;;
67737;SDS011;54534;43.612;1.572;2023-06-14T02:10:20;2.57;;;1.03;;
67737;SDS011;54534;43.612;1.572;2023-06-14T02:12:45;1.27;;;1.10;;
67737;SDS011;54534;43.612;1.572;2023-06-14T02:15:11;1.17;;;0.90;;
67737;SDS011;54534;43.612;1.572;2023-06-14T02:17:42;0.97;;;0.93;;
67737;SDS011;54534;43.612;1.572;2023-06-14T02:20:08;1.30;;;1.10;;
67737;SDS011;54534;43.612;1.572;2023-06-14T02:22:34;1.70;;;1.00;;
67737;SDS011;54534;43.612;1.572;2023-06-14T02:25:00;0.80;;;0.80;;
67737;SDS011;54534;43.612;1.572;2023-06-14T02:27:25;1.03;;;1.03;;
67737;SDS011;54534;43.612;1.572;2023-06-14T02:29:51;1.10;;;0.83;;
67737;SDS011;54534;43.612;1.572;2023-06-14T02:32:16;1.30;;;1.20;;
67737;SDS011;54534;43.612;1.572;2023-06-14T02:34:41;1.30;;;1.20;;
67737;SDS011;54534;43.612;1.572;2023-06-14T02:37:07;1.80;;;1.00;;
67737;SDS011;54534;43.612;1.572;2023-06-14T02:39:33;1.30;;;1.20;;
67737;SDS011;54534;43.612;1.572;2023-06-14T02:41:58;1.07;;;0.97;;
67737;SDS011;54534;43.612;1.572;2023-06-14T02:44:24;3.17;;;1.00;;
67737;SDS011;54534;43.612;1.572;2023-06-14T02:46:51;2.40;;;1.50;;
67737;SDS011;54534;43.612;1.572;2023-06-14T02:49:17;0.97;;;0.97;;
67737;SDS011;54534;43.612;1.572;2023-06-14T02:51:42;1.20;;;1.10;;
67737;SDS011;54534;43.612;1.572;2023-06-14T02:54:08;1.20;;;1.10;;
67737;SDS011;54534;43.612;1.572;2023-06-14T02:56:33;1.27;;;0.97;;
67737;SDS011;54534;43.612;1.572;2023-06-14T02:58:58;1.47;;;1.10;;
67737;SDS011;54534;43.612;1.572;2023-06-14T03:01:25;1.50;;;1.20;;
67737;SDS011;54534;43.612;1.572;2023-06-14T03:04:00;2.87;;;1.00;;
67737;SDS011;54534;43.612;1.572;2023-06-14T03:06:29;1.23;;;1.13;;
67737;SDS011;54534;43.612;1.572;2023-06-14T03:11:29;1.80;;;1.13;;
67737;SDS011;54534;43.612;1.572;2023-06-14T03:13:55;1.50;;;1.27;;
67737;SDS011;54534;43.612;1.572;2023-06-14T03:16:21;3.30;;;1.50;;
67737;SDS011;54534;43.612;1.572;2023-06-14T03:18:49;0.93;;;0.93;;
67737;SDS011;54534;43.612;1.572;2023-06-14T03:21:16;1.97;;;1.40;;
67737;SDS011;54534;43.612;1.572;2023-06-14T03:23:42;1.73;;;1.30;;
67737;SDS011;54534;43.612;1.572;2023-06-14T03:26:08;1.60;;;1.50;;
67737;SDS011;54534;43.612;1.572;2023-06-14T03:28:33;4.90;;;1.20;;
67737;SDS011;54534;43.612;1.572;2023-06-14T03:30:59;1.20;;;1.10;;
67737;SDS011;54534;43.612;1.572;2023-06-14T03:33:26;1.03;;;1.00;;
67737;SDS011;54534;43.612;1.572;2023-06-14T03:35:52;1.30;;;1.20;;
67737;SDS011;54534;43.612;1.572;2023-06-14T03:38:17;1.23;;;1.13;;
67737;SDS011;54534;43.612;1.572;2023-06-14T03:40:42;2.10;;;1.20;;
67737;SDS011;54534;43.612;1.572;2023-06-14T03:43:09;1.53;;;1.30;;
67737;SDS011;54534;43.612;1.572;2023-06-14T03:45:35;2.30;;;1.40;;
67737;SDS011;54534;43.612;1.572;2023-06-14T03:48:00;1.17;;;1.07;;
67737;SDS011;54534;43.612;1.572;2023-06-14T03:50:26;1.73;;;1.27;;
67737;SDS011;54534;43.612;1.572;2023-06-14T03:52:52;2.73;;;1.13;;
67737;SDS011;54534;43.612;1.572;2023-06-14T03:55:18;2.23;;;1.60;;
67737;SDS011;54534;43.612;1.572;2023-06-14T03:57:43;1.43;;;1.00;;
67737;SDS011;54534;43.612;1.572;2023-06-14T04:00:09;1.20;;;1.10;;
67737;SDS011;54534;43.612;1.572;2023-06-14T04:02:35;1.77;;;1.20;;
67737;SDS011;54534;43.612;1.572;2023-06-14T04:05:01;1.23;;;1.23;;
67737;SDS011;54534;43.612;1.572;2023-06-14T04:07:27;1.30;;;1.20;;
67737;SDS011;54534;43.612;1.572;2023-06-14T04:09:53;1.03;;;1.03;;
67737;SDS011;54534;43.612;1.572;2023-06-14T04:12:19;1.30;;;1.20;;
67737;SDS011;54534;43.612;1.572;2023-06-14T04:14:45;1.70;;;1.37;;
67737;SDS011;54534;43.612;1.572;2023-06-14T04:17:10;1.50;;;1.40;;
67737;SDS011;54534;43.612;1.572;2023-06-14T04:19:36;1.60;;;1.50;;
67737;SDS011;54534;43.612;1.572;2023-06-14T04:22:01;1.20;;;1.10;;
67737;SDS011;54534;43.612;1.572;2023-06-14T04:24:27;1.63;;;1.30;;
67737;SDS011;54534;43.612;1.572;2023-06-14T04:27:00;2.97;;;1.63;;
67737;SDS011;54534;43.612;1.572;2023-06-14T04:29:26;2.10;;;1.60;;
67737;SDS011;54534;43.612;1.572;2023-06-14T04:31:54;1.27;;;1.17;;
67737;SDS011;54534;43.612;1.572;2023-06-14T04:34:23;1.33;;;1.23;;
67737;SDS011;54534;43.612;1.572;2023-06-14T04:36:54;1.37;;;1.27;;
67737;SDS011;54534;43.612;1.572;2023-06-14T04:39:24;1.60;;;1.17;;
67737;SDS011;54534;43.612;1.572;2023-06-14T04:41:51;2.17;;;1.30;;
67737;SDS011;54534;43.612;1.572;2023-06-14T04:44:17;1.43;;;1.33;;
67737;SDS011;54534;43.612;1.572;2023-06-14T04:46:45;4.33;;;1.60;;
67737;SDS011;54534;43.612;1.572;2023-06-14T04:49:14;1.37;;;1.30;;
67737;SDS011;54534;43.612;1.572;2023-06-14T04:51:44;1.17;;;1.17;;
67737;SDS011;54534;43.612;1.572;2023-06-14T04:54:11;1.67;;;1.27;;
67737;SDS011;54534;43.612;1.572;2023-06-14T04:56:40;1.20;;;1.20;;
67737;SDS011;54534;43.612;1.572;2023-06-14T04:59:07;1.43;;;1.33;;
67737;SDS011;54534;43.612;1.572;2023-06-14T05:01:34;1.07;;;1.07;;
67737;SDS011;54534;43.612;1.572;2023-06-14T05:03:59;1.17;;;1.13;;
67737;SDS011;54534;43.612;1.572;2023-06-14T05:06:25;1.80;;;1.43;;
67737;SDS011;54534;43.612;1.572;2023-06-14T05:08:54;1.55;;;1.45;;
67737;SDS011;54534;43.612;1.572;2023-06-14T05:11:20;1.30;;;1.20;;
67737;SDS011;54534;43.612;1.572;2023-06-14T05:13:45;2.63;;;1.20;;
67737;SDS011;54534;43.612;1.572;2023-06-14T05:16:14;1.40;;;1.30;;
67737;SDS011;54534;43.612;1.572;2023-06-14T05:18:41;1.70;;;1.60;;
67737;SDS011;54534;43.612;1.572;2023-06-14T05:21:07;3.47;;;1.67;;
67737;SDS011;54534;43.612;1.572;2023-06-14T05:23:33;1.50;;;1.40;;
67737;SDS011;54534;43.612;1.572;2023-06-14T05:25:59;5.60;;;1.37;;
67737;SDS011;54534;43.612;1.572;2023-06-14T05:28:25;3.97;;;1.40;;
67737;SDS011;54534;43.612;1.572;2023-06-14T05:30:51;1.40;;;1.30;;
67737;SDS011;54534;43.612;1.572;2023-06-14T05:33:16;1.67;;;1.57;;
67737;SDS011;54534;43.612;1.572;2023-06-14T05:35:42;2.97;;;1.63;;
67737;SDS011;54534;43.612;1.572;2023-06-14T05:38:07;2.47;;;1.40;;
67737;SDS011;54534;43.612;1.572;2023-06-14T05:40:33;2.57;;;1.93;;
67737;SDS011;54534;43.612;1.572;2023-06-14T05:42:59;4.27;;;2.07;;
67737;SDS011;54534;43.612;1.572;2023-06-14T05:45:24;2.30;;;1.97;;
67737;SDS011;54534;43.612;1.572;2023-06-14T05:47:50;2.83;;;1.50;;
67737;SDS011;54534;43.612;1.572;2023-06-14T05:50:15;2.17;;;1.63;;
67737;SDS011;54534;43.612;1.572;2023-06-14T05:52:41;1.73;;;1.63;;
67737;SDS011;54534;43.612;1.572;2023-06-14T05:55:06;2.37;;;2.07;;
67737;SDS011;54534;43.612;1.572;2023-06-14T05:57:32;3.77;;;2.00;;
67737;SDS011;54534;43.612;1.572;2023-06-14T05:59:57;6.00;;;2.00;;
67737;SDS011;54534;43.612;1.572;2023-06-14T06:02:22;2.30;;;2.10;;
67737;SDS011;54534;43.612;1.572;2023-06-14T06:04:48;5.73;;;2.10;;
67737;SDS011;54534;43.612;1.572;2023-06-14T06:07:14;3.83;;;2.00;;
67737;SDS011;54534;43.612;1.572;2023-06-14T06:09:40;2.40;;;2.00;;
67737;SDS011;54534;43.612;1.572;2023-06-14T06:12:06;5.23;;;2.20;;
67737;SDS011;54534;43.612;1.572;2023-06-14T06:14:32;25.43;;;2.63;;
67737;SDS011;54534;43.612;1.572;2023-06-14T06:16:57;2.47;;;2.27;;
67737;SDS011;54534;43.612;1.572;2023-06-14T06:19:23;20.43;;;2.60;;
67737;SDS011;54534;43.612;1.572;2023-06-14T06:21:49;7.30;;;2.50;;
67737;SDS011;54534;43.612;1.572;2023-06-14T06:24:14;4.10;;;2.37;;
67737;SDS011;54534;43.612;1.572;2023-06-14T06:26:40;3.03;;;2.37;;
67737;SDS011;54534;43.612;1.572;2023-06-14T06:29:05;2.47;;;2.27;;
67737;SDS011;54534;43.612;1.572;2023-06-14T06:31:31;9.47;;;2.20;;
67737;SDS011;54534;43.612;1.572;2023-06-14T06:33:56;13.47;;;2.07;;
67737;SDS011;54534;43.612;1.572;2023-06-14T06:36:22;2.53;;;2.33;;
67737;SDS011;54534;43.612;1.572;2023-06-14T06:38:47;23.70;;;3.87;;
67737;SDS011;54534;43.612;1.572;2023-06-14T06:41:13;13.53;;;3.20;;
67737;SDS011;54534;43.612;1.572;2023-06-14T06:43:39;4.60;;;2.90;;
67737;SDS011;54534;43.612;1.572;2023-06-14T06:46:04;6.07;;;2.77;;
67737;SDS011;54534;43.612;1.572;2023-06-14T06:48:30;2.87;;;2.43;;
67737;SDS011;54534;43.612;1.572;2023-06-14T06:50:55;3.73;;;2.83;;
67737;SDS011;54534;43.612;1.572;2023-06-14T06:53:21;7.07;;;2.93;;
67737;SDS011;54534;43.612;1.572;2023-06-14T06:55:46;3.00;;;2.70;;
67737;SDS011;54534;43.612;1.572;2023-06-14T06:58:12;4.27;;;2.83;;
67737;SDS011;54534;43.612;1.572;2023-06-14T07:00:38;7.50;;;2.97;;
67737;SDS011;54534;43.612;1.572;2023-06-14T07:03:04;4.70;;;2.20;;
67737;SDS011;54534;43.612;1.572;2023-06-14T07:05:30;4.90;;;2.80;;
67737;SDS011;54534;43.612;1.572;2023-06-14T07:07:56;7.13;;;2.53;;
67737;SDS011;54534;43.612;1.572;2023-06-14T07:10:21;4.33;;;3.00;;
67737;SDS011;54534;43.612;1.572;2023-06-14T07:12:47;4.17;;;3.03;;
67737;SDS011;54534;43.612;1.572;2023-06-14T07:15:12;3.03;;;2.70;;
67737;SDS011;54534;43.612;1.572;2023-06-14T07:17:38;4.33;;;2.80;;
67737;SDS011;54534;43.612;1.572;2023-06-14T07:20:04;6.17;;;3.17;;
67737;SDS011;54534;43.612;1.572;2023-06-14T07:22:33;3.58;;;2.72;;
67737;SDS011;54534;43.612;1.572;2023-06-14T07:24:58;3.97;;;2.97;;
67737;SDS011;54534;43.612;1.572;2023-06-14T07:27:23;2.97;;;2.77;;
67737;SDS011;54534;43.612;1.572;2023-06-14T07:29:49;3.60;;;3.30;;
67737;SDS011;54534;43.612;1.572;2023-06-14T07:32:14;6.43;;;2.70;;
67737;SDS011;54534;43.612;1.572;2023-06-14T07:34:40;3.57;;;2.73;;
67737;SDS011;54534;43.612;1.572;2023-06-14T07:37:05;4.23;;;2.60;;
67737;SDS011;54534;43.612;1.572;2023-06-14T07:39:31;4.67;;;2.73;;
67737;SDS011;54534;43.612;1.572;2023-06-14T07:41:56;3.30;;;2.70;;
67737;SDS011;54534;43.612;1.572;2023-06-14T07:44:21;5.40;;;3.27;;
67737;SDS011;54534;43.612;1.572;2023-06-14T07:46:47;8.43;;;2.87;;
67737;SDS011;54534;43.612;1.572;2023-06-14T07:49:14;4.20;;;3.00;;
67737;SDS011;54534;43.612;1.572;2023-06-14T07:51:40;4.33;;;2.77;;
67737;SDS011;54534;43.612;1.572;2023-06-14T07:54:05;3.50;;;3.20;;
67737;SDS011;54534;43.612;1.572;2023-06-14T07:56:32;3.37;;;2.87;;
67737;SDS011;54534;43.612;1.572;2023-06-14T07:58:58;6.33;;;3.27;;
67737;SDS011;54534;43.612;1.572;2023-06-14T08:01:23;3.70;;;3.00;;
67737;SDS011;54534;43.612;1.572;2023-06-14T08:03:50;4.97;;;3.37;;
67737;SDS011;54534;43.612;1.572;2023-06-14T08:06:15;6.00;;;3.07;;
67737;SDS011;54534;43.612;1.572;2023-06-14T08:08:41;4.33;;;3.40;;
67737;SDS011;54534;43.612;1.572;2023-06-14T08:11:06;7.23;;;3.17;;
67737;SDS011;54534;43.612;1.572;2023-06-14T08:13:32;3.67;;;3.37;;
67737;SDS011;54534;43.612;1.572;2023-06-14T08:15:57;6.00;;;3.30;;
67737;SDS011;54534;43.612;1.572;2023-06-14T08:18:23;6.53;;;3.07;;
67737;SDS011;54534;43.612;1.572;2023-06-14T08:20:48;4.80;;;3.10;;
67737;SDS011;54534;43.612;1.572;2023-06-14T08:23:15;6.03;;;3.30;;
67737;SDS011;54534;43.612;1.572;2023-06-14T08:25:44;7.20;;;3.20;;
67737;SDS011;54534;43.612;1.572;2023-06-14T08:28:09;4.70;;;3.20;;
67737;SDS011;54534;43.612;1.572;2023-06-14T08:30:35;3.63;;;3.03;;
67737;SDS011;54534;43.612;1.572;2023-06-14T08:33:01;3.33;;;3.00;;
67737;SDS011;54534;43.612;1.572;2023-06-14T08:35:26;5.40;;;3.07;;
67737;SDS011;54534;43.612;1.572;2023-06-14T08:37:52;5.07;;;3.37;;
67737;SDS011;54534;43.612;1.572;2023-06-14T08:40:18;3.80;;;3.40;;
67737;SDS011;54534;43.612;1.572;2023-06-14T08:42:47;5.37;;;3.13;;
67737;SDS011;54534;43.612;1.572;2023-06-14T08:45:15;4.18;;;3.17;;
67737;SDS011;54534;43.612;1.572;2023-06-14T08:47:40;7.97;;;3.60;;
67737;SDS011;54534;43.612;1.572;2023-06-14T08:50:06;3.70;;;3.27;;
67737;SDS011;54534;43.612;1.572;2023-06-14T08:52:33;9.23;;;3.60;;
67737;SDS011;54534;43.612;1.572;2023-06-14T08:55:05;3.90;;;3.30;;
67737;SDS011;54534;43.612;1.572;2023-06-14T08:57:33;5.10;;;3.03;;
67737;SDS011;54534;43.612;1.572;2023-06-14T09:00:02;3.43;;;3.13;;
67737;SDS011;54534;43.612;1.572;2023-06-14T09:02:36;4.87;;;3.30;;
67737;SDS011;54534;43.612;1.572;2023-06-14T09:05:02;6.00;;;3.20;;
67737;SDS011;54534;43.612;1.572;2023-06-14T09:07:28;3.57;;;3.27;;
67737;SDS011;54534;43.612;1.572;2023-06-14T09:10:10;3.43;;;3.13;;
67737;SDS011;54534;43.612;1.572;2023-06-14T09:12:37;3.60;;;3.20;;
67737;SDS011;54534;43.612;1.572;2023-06-14T09:15:04;4.23;;;3.33;;
67737;SDS011;54534;43.612;1.572;2023-06-14T09:17:40;5.00;;;3.40;;
67737;SDS011;54534;43.612;1.572;2023-06-14T09:20:06;4.17;;;3.63;;
67737;SDS011;54534;43.612;1.572;2023-06-14T09:22:38;3.83;;;3.43;;
67737;SDS011;54534;43.612;1.572;2023-06-14T09:25:05;4.60;;;4.00;;
67737;SDS011;54534;43.612;1.572;2023-06-14T09:27:31;3.67;;;3.33;;
67737;SDS011;54534;43.612;1.572;2023-06-14T09:29:57;3.67;;;3.10;;
67737;SDS011;54534;43.612;1.572;2023-06-14T09:32:23;8.87;;;3.23;;
67737;SDS011;54534;43.612;1.572;2023-06-14T09:34:49;5.97;;;3.30;;
67737;SDS011;54534;43.612;1.572;2023-06-14T09:37:27;7.57;;;3.67;;
67737;SDS011;54534;43.612;1.572;2023-06-14T09:39:54;5.22;;;3.50;;
67737;SDS011;54534;43.612;1.572;2023-06-14T09:42:19;4.50;;;3.20;;
67737;SDS011;54534;43.612;1.572;2023-06-14T09:44:48;3.90;;;3.50;;
67737;SDS011;54534;43.612;1.572;2023-06-14T09:47:14;4.22;;;3.00;;
67737;SDS011;54534;43.612;1.572;2023-06-14T09:49:41;4.10;;;3.77;;
67737;SDS011;54534;43.612;1.572;2023-06-14T09:52:07;4.80;;;3.87;;
67737;SDS011;54534;43.612;1.572;2023-06-14T09:57:07;19.63;;;4.50;;
67737;SDS011;54534;43.612;1.572;2023-06-14T09:59:33;10.63;;;4.00;;
67737;SDS011;54534;43.612;1.572;2023-06-14T10:02:02;11.23;;;3.90;;
67737;SDS011;54534;43.612;1.572;2023-06-14T10:04:34;5.27;;;3.87;;
67737;SDS011;54534;43.612;1.572;2023-06-14T10:07:00;9.93;;;4.20;;
67737;SDS011;54534;43.612;1.572;2023-06-14T10:09:27;13.33;;;4.63;;
67737;SDS011;54534;43.612;1.572;2023-06-14T10:11:54;11.67;;;3.87;;
67737;SDS011;54534;43.612;1.572;2023-06-14T10:14:21;6.00;;;4.33;;
67737;SDS011;54534;43.612;1.572;2023-06-14T10:16:58;7.40;;;3.80;;
67737;SDS011;54534;43.612;1.572;2023-06-14T10:19:29;8.30;;;3.80;;
67737;SDS011;54534;43.612;1.572;2023-06-14T10:24:39;30.30;;;5.43;;
67737;SDS011;54534;43.612;1.572;2023-06-14T10:27:07;12.30;;;4.90;;
67737;SDS011;54534;43.612;1.572;2023-06-14T10:32:21;26.73;;;5.00;;
67737;SDS011;54534;43.612;1.572;2023-06-14T10:34:58;15.43;;;4.53;;
67737;SDS011;54534;43.612;1.572;2023-06-14T10:37:30;22.37;;;4.93;;
67737;SDS011;54534;43.612;1.572;2023-06-14T10:39:56;13.60;;;4.13;;
67737;SDS011;54534;43.612;1.572;2023-06-14T10:42:21;14.37;;;4.37;;
67737;SDS011;54534;43.612;1.572;2023-06-14T10:44:56;11.10;;;3.97;;
67737;SDS011;54534;43.612;1.572;2023-06-14T10:47:26;9.90;;;4.10;;
67737;SDS011;54534;43.612;1.572;2023-06-14T10:50:05;7.00;;;3.97;;
67737;SDS011;54534;43.612;1.572;2023-06-14T10:52:34;8.97;;;4.07;;
67737;SDS011;54534;43.612;1.572;2023-06-14T10:57:34;7.40;;;3.80;;
67737;SDS011;54534;43.612;1.572;2023-06-14T11:00:01;7.03;;;4.30;;
67737;SDS011;54534;43.612;1.572;2023-06-14T11:05:41;6.50;;;3.90;;
67737;SDS011;54534;43.612;1.572;2023-06-14T11:08:17;6.57;;;4.03;;
67737;SDS011;54534;43.612;1.572;2023-06-14T11:10:45;10.57;;;4.30;;
67737;SDS011;54534;43.612;1.572;2023-06-14T11:13:12;7.87;;;4.53;;
67737;SDS011;54534;43.612;1.572;2023-06-14T11:15:38;8.53;;;4.17;;
67737;SDS011;54534;43.612;1.572;2023-06-14T11:18:08;6.90;;;4.03;;
67737;SDS011;54534;43.612;1.572;2023-06-14T11:20:36;10.87;;;4.07;;
67737;SDS011;54534;43.612;1.572;2023-06-14T11:23:03;5.90;;;4.27;;
67737;SDS011;54534;43.612;1.572;2023-06-14T11:25:29;10.57;;;3.67;;
67737;SDS011;54534;43.612;1.572;2023-06-14T11:27:55;5.17;;;4.00;;
67737;SDS011;54534;43.612;1.572;2023-06-14T11:30:21;7.40;;;3.97;;
67737;SDS011;54534;43.612;1.572;2023-06-14T11:32:47;4.77;;;3.83;;
67737;SDS011;54534;43.612;1.572;2023-06-14T11:37:42;4.80;;;3.90;;
67737;SDS011;54534;43.612;1.572;2023-06-14T11:40:09;4.83;;;3.90;;
67737;SDS011;54534;43.612;1.572;2023-06-14T11:42:36;6.13;;;3.97;;
67737;SDS011;54534;43.612;1.572;2023-06-14T11:45:03;8.17;;;4.13;;
67737;SDS011;54534;43.612;1.572;2023-06-14T11:47:32;4.85;;;4.38;;
67737;SDS011;54534;43.612;1.572;2023-06-14T11:50:02;5.70;;;4.50;;
67737;SDS011;54534;43.612;1.572;2023-06-14T11:52:28;6.67;;;3.93;;
67737;SDS011;54534;43.612;1.572;2023-06-14T11:54:54;4.60;;;4.10;;
67737;SDS011;54534;43.612;1.572;2023-06-14T11:57:22;5.47;;;4.40;;
67737;SDS011;54534;43.612;1.572;2023-06-14T11:59:48;5.40;;;3.90;;
67737;SDS011;54534;43.612;1.572;2023-06-14T12:02:17;4.20;;;3.80;;
67737;SDS011;54534;43.612;1.572;2023-06-14T12:04:44;5.73;;;4.63;;
67737;SDS011;54534;43.612;1.572;2023-06-14T12:07:12;7.83;;;5.20;;
67737;SDS011;54534;43.612;1.572;2023-06-14T12:10:27;5.13;;;3.90;;
67737;SDS011;54534;43.612;1.572;2023-06-14T12:12:35;5.03;;;4.47;;
67737;SDS011;54534;43.612;1.572;2023-06-14T12:15:05;9.55;;;4.75;;
67737;SDS011;54534;43.612;1.572;2023-06-14T12:17:33;7.70;;;4.50;;
67737;SDS011;54534;43.612;1.572;2023-06-14T12:19:59;4.53;;;3.80;;
67737;SDS011;54534;43.612;1.572;2023-06-14T12:22:31;6.10;;;3.63;;
67737;SDS011;54534;43.612;1.572;2023-06-14T12:24:57;8.37;;;4.00;;
67737;SDS011;54534;43.612;1.572;2023-06-14T12:27:22;4.70;;;4.23;;
67737;SDS011;54534;43.612;1.572;2023-06-14T12:29:58;4.77;;;4.33;;
67737;SDS011;54534;43.612;1.572;2023-06-14T12:32:24;5.63;;;4.43;;
67737;SDS011;54534;43.612;1.572;2023-06-14T12:34:49;5.30;;;4.37;;
67737;SDS011;54534;43.612;1.572;2023-06-14T12:37:15;6.10;;;4.30;;
67737;SDS011;54534;43.612;1.572;2023-06-14T12:39:41;4.60;;;4.10;;
67737;SDS011;54534;43.612;1.572;2023-06-14T12:42:06;7.20;;;5.00;;
67737;SDS011;54534;43.612;1.572;2023-06-14T12:44:32;5.43;;;4.60;;
67737;SDS011;54534;43.612;1.572;2023-06-14T12:47:00;6.20;;;4.70;;
67737;SDS011;54534;43.612;1.572;2023-06-14T12:49:26;4.67;;;4.27;;
67737;SDS011;54534;43.612;1.572;2023-06-14T12:51:51;5.60;;;4.83;;
67737;SDS011;54534;43.612;1.572;2023-06-14T12:54:16;6.30;;;5.00;;
67737;SDS011;54534;43.612;1.572;2023-06-14T12:56:42;4.83;;;4.37;;
67737;SDS011;54534;43.612;1.572;2023-06-14T12:59:09;5.10;;;4.63;;
67737;SDS011;54534;43.612;1.572;2023-06-14T13:01:37;6.13;;;4.83;;
67737;SDS011;54534;43.612;1.572;2023-06-14T13:04:03;8.10;;;4.83;;
67737;SDS011;54534;43.612;1.572;2023-06-14T13:06:29;6.70;;;4.37;;
67737;SDS011;54534;43.612;1.572;2023-06-14T13:08:56;6.90;;;4.67;;
67737;SDS011;54534;43.612;1.572;2023-06-14T13:11:22;6.67;;;5.03;;
67737;SDS011;54534;43.612;1.572;2023-06-14T13:13:48;8.77;;;4.90;;
67737;SDS011;54534;43.612;1.572;2023-06-14T13:16:13;5.80;;;4.67;;
67737;SDS011;54534;43.612;1.572;2023-06-14T13:18:39;6.93;;;4.60;;
67737;SDS011;54534;43.612;1.572;2023-06-14T13:21:05;5.77;;;5.20;;
67737;SDS011;54534;43.612;1.572;2023-06-14T13:23:30;6.43;;;4.93;;
67737;SDS011;54534;43.612;1.572;2023-06-14T13:25:56;7.40;;;5.20;;
67737;SDS011;54534;43.612;1.572;2023-06-14T13:28:21;6.23;;;5.10;;
67737;SDS011;54534;43.612;1.572;2023-06-14T13:30:47;5.53;;;4.90;;
67737;SDS011;54534;43.612;1.572;2023-06-14T13:33:13;6.87;;;4.70;;
67737;SDS011;54534;43.612;1.572;2023-06-14T13:35:38;6.77;;;4.73;;
67737;SDS011;54534;43.612;1.572;2023-06-14T13:38:04;5.20;;;4.70;;
67737;SDS011;54534;43.612;1.572;2023-06-14T13:40:29;5.53;;;4.80;;
67737;SDS011;54534;43.612;1.572;2023-06-14T13:42:55;6.17;;;4.93;;
67737;SDS011;54534;43.612;1.572;2023-06-14T13:45:20;6.40;;;5.00;;
67737;SDS011;54534;43.612;1.572;2023-06-14T13:47:46;5.57;;;4.83;;
67737;SDS011;54534;43.612;1.572;2023-06-14T13:50:13;8.67;;;5.13;;
67737;SDS011;54534;43.612;1.572;2023-06-14T13:52:39;5.57;;;4.70;;
67737;SDS011;54534;43.612;1.572;2023-06-14T13:55:04;6.67;;;5.67;;
67737;SDS011;54534;43.612;1.572;2023-06-14T13:57:30;10.87;;;5.03;;
67737;SDS011;54534;43.612;1.572;2023-06-14T13:59:55;6.23;;;5.00;;
67737;SDS011;54534;43.612;1.572;2023-06-14T14:02:26;6.90;;;5.07;;
67737;SDS011;54534;43.612;1.572;2023-06-14T14:04:51;7.33;;;5.07;;
67737;SDS011;54534;43.612;1.572;2023-06-14T14:07:18;7.03;;;5.07;;
67737;SDS011;54534;43.612;1.572;2023-06-14T14:09:45;5.60;;;5.10;;
67737;SDS011;54534;43.612;1.572;2023-06-14T14:12:11;6.93;;;5.57;;
67737;SDS011;54534;43.612;1.572;2023-06-14T14:14:36;6.93;;;5.43;;
67737;SDS011;54534;43.612;1.572;2023-06-14T14:17:02;6.53;;;5.57;;
67737;SDS011;54534;43.612;1.572;2023-06-14T14:19:27;8.67;;;5.57;;
67737;SDS011;54534;43.612;1.572;2023-06-14T14:21:53;8.77;;;6.47;;
67737;SDS011;54534;43.612;1.572;2023-06-14T14:24:18;6.53;;;5.73;;
67737;SDS011;54534;43.612;1.572;2023-06-14T14:26:44;8.27;;;6.17;;
67737;SDS011;54534;43.612;1.572;2023-06-14T14:29:12;6.37;;;5.60;;
67737;SDS011;54534;43.612;1.572;2023-06-14T14:31:37;10.93;;;5.50;;
67737;SDS011;54534;43.612;1.572;2023-06-14T14:34:03;6.87;;;5.83;;
67737;SDS011;54534;43.612;1.572;2023-06-14T14:36:28;6.30;;;5.73;;
67737;SDS011;54534;43.612;1.572;2023-06-14T14:38:54;7.60;;;6.00;;
67737;SDS011;54534;43.612;1.572;2023-06-14T14:41:19;8.93;;;6.43;;
67737;SDS011;54534;43.612;1.572;2023-06-14T14:43:45;12.97;;;6.70;;
67737;SDS011;54534;43.612;1.572;2023-06-14T14:46:10;7.53;;;6.77;;
67737;SDS011;54534;43.612;1.572;2023-06-14T14:48:35;9.53;;;6.80;;
67737;SDS011;54534;43.612;1.572;2023-06-14T14:51:01;7.60;;;6.83;;
67737;SDS011;54534;43.612;1.572;2023-06-14T14:53:27;11.53;;;6.70;;
67737;SDS011;54534;43.612;1.572;2023-06-14T14:55:52;9.27;;;6.87;;
67737;SDS011;54534;43.612;1.572;2023-06-14T14:58:18;9.60;;;7.07;;
67737;SDS011;54534;43.612;1.572;2023-06-14T15:00:44;23.97;;;7.60;;
67737;SDS011;54534;43.612;1.572;2023-06-14T15:03:10;9.90;;;7.23;;
67737;SDS011;54534;43.612;1.572;2023-06-14T15:05:35;8.77;;;6.87;;